Time;durP1;ratioP1;P1;durP2;ratioP2;P2;SDS_P1;SDS_P2;PMS_P1;PMS_P2;Temp;Humidity;BMP_temperature;BMP_pressure;BME280_temperature;BME280_humidity;BME280_pressure;Samples;Min_cycle;Max_cycle;Signal;HPM_P1;HPM_P2
2023/07/01 00:00:00;;;;;;;6.13;3.10;;;;;;;16.70;94.38;150261.22;4944519;28;20259;-63
2023/07/01 00:02:26;;;;;;;3.50;2.50;;;;;;;16.66;94.78;150252.47;4949703;28;20250;-63
2023/07/01 00:04:53;;;;;;;3.93;2.90;;;;;;;16.57;94.67;150229.94;4944209;28;20239;-63
2023/07/01 00:07:20;;;;;;;3.63;2.80;;;;;;;16.68;93.99;150257.47;4949560;28;20246;-63
2023/07/01 00:09:46;;;;;;;7.83;3.23;;;;;;;16.68;94.14;150257.47;4945694;28;20322;-63
2023/07/01 00:12:13;;;;;;;4.70;3.00;;;;;;;16.59;93.92;150236.22;4948740;28;20250;-63
2023/07/01 00:14:41;;;;;;;4.93;3.40;;;;;;;16.45;94.60;150201.22;4946864;28;20227;-63
2023/07/01 00:17:09;;;;;;;3.33;2.77;;;;;;;16.45;95.41;150202.44;4953176;28;20307;-63
2023/07/01 00:19:36;;;;;;;6.60;3.07;;;;;;;16.55;93.68;150226.22;4950716;28;20232;-63
2023/07/01 00:22:02;;;;;;;3.67;2.70;;;;;;;16.53;93.85;150221.22;4946722;28;20289;-63
2023/07/01 00:24:29;;;;;;;5.53;3.17;;;;;;;16.46;93.74;150204.94;4949639;28;20234;-63
2023/07/01 00:26:56;;;;;;;6.00;3.23;;;;;;;16.36;94.55;150181.22;4945215;28;20785;-63
2023/07/01 00:29:22;;;;;;;3.73;2.80;;;;;;;16.29;95.22;150162.50;4948472;28;20223;-63
2023/07/01 00:31:50;;;;;;;8.67;2.90;;;;;;;16.27;94.58;150157.50;4945547;28;20282;-63
2023/07/01 00:34:18;;;;;;;6.73;2.83;;;;;;;16.23;95.56;150148.72;4948354;28;20253;-63
2023/07/01 00:36:45;;;;;;;5.63;2.90;;;;;;;16.15;95.54;150130.00;4943862;28;20231;-63
2023/07/01 00:39:12;;;;;;;4.17;3.33;;;;;;;16.05;96.88;150106.22;4948814;28;20718;-63
2023/07/01 00:41:38;;;;;;;5.20;2.90;;;;;;;16.00;96.27;150093.72;4949985;28;20241;-63
2023/07/01 00:44:05;;;;;;;4.33;2.80;;;;;;;15.94;97.30;150078.72;4947245;28;20234;-63
2023/07/01 00:46:32;;;;;;;4.33;2.60;;;;;;;15.94;96.60;150080.00;4944246;28;20225;-63
2023/07/01 00:49:01;;;;;;;5.63;2.70;;;;;;;15.95;95.43;150081.22;4944268;28;20254;-63
2023/07/01 00:51:28;;;;;;;5.50;2.87;;;;;;;15.85;95.78;150056.22;4948072;28;20308;-63
2023/07/01 00:53:55;;;;;;;4.20;2.77;;;;;;;15.77;96.90;150038.72;4944960;28;20235;-63
2023/07/01 00:56:23;;;;;;;5.63;2.50;;;;;;;15.74;97.42;150031.22;4950168;28;20226;-63
2023/07/01 00:58:50;;;;;;;4.37;2.90;;;;;;;15.64;96.68;150006.25;4944202;28;20229;-63
2023/07/01 01:01:46;;;;;;;4.50;2.80;;;;;;;15.53;96.65;149978.75;4947353;28;20247;-63
2023/07/01 01:04:20;;;;;;;8.63;2.80;;;;;;;15.45;97.44;149961.25;4963618;28;21061;-63
2023/07/01 01:06:52;;;;;;;4.13;2.60;;;;;;;15.41;97.11;149950.00;4950103;28;20580;-63
2023/07/01 01:09:25;;;;;;;3.47;2.60;;;;;;;15.31;97.23;149927.53;4952672;28;20671;-63
2023/07/01 01:11:55;;;;;;;6.13;2.80;;;;;;;15.26;98.43;149913.78;4950852;28;20229;-63
2023/07/01 01:14:22;;;;;;;4.40;2.57;;;;;;;15.22;98.97;149903.78;4969781;28;20213;-63
2023/07/01 01:16:50;;;;;;;4.03;2.70;;;;;;;15.13;99.26;149883.81;4945493;28;20257;-63
2023/07/01 01:19:37;;;;;;;5.63;2.97;;;;;;;15.08;99.60;149870.09;4946456;28;20304;-63
2023/07/01 01:22:16;;;;;;;5.27;2.90;;;;;;;14.94;100.00;149836.34;4964917;28;20234;-63
2023/07/01 01:24:48;;;;;;;6.97;2.70;;;;;;;14.85;100.00;149815.13;4949940;28;20238;-63
2023/07/01 01:27:20;;;;;;;5.63;2.63;;;;;;;14.86;99.57;149818.84;4950545;28;20285;-63
2023/07/01 01:29:48;;;;;;;5.13;2.70;;;;;;;14.90;97.06;149828.84;4949634;28;20238;-63
2023/07/01 01:32:15;;;;;;;3.23;2.40;;;;;;;14.96;96.57;149841.31;4951859;28;20242;-63
2023/07/01 01:34:41;;;;;;;5.50;2.50;;;;;;;15.00;97.09;149852.59;4950370;28;20340;-63
2023/07/01 01:37:13;;;;;;;3.77;2.70;;;;;;;14.99;96.34;149850.09;4950019;28;20226;-63
2023/07/01 01:39:44;;;;;;;3.83;2.60;;;;;;;15.04;95.88;149862.59;4948588;28;20321;-63
2023/07/01 01:42:17;;;;;;;2.93;2.30;;;;;;;14.99;95.39;149848.81;4951689;28;20242;-63
2023/07/01 01:44:52;;;;;;;3.33;2.53;;;;;;;15.01;92.80;149853.81;4949630;28;20577;-63
2023/07/01 01:47:21;;;;;;;4.50;2.43;;;;;;;15.04;93.61;149862.59;4955174;28;20244;-63
2023/07/01 01:49:53;;;;;;;2.87;2.17;;;;;;;15.05;91.69;149863.81;4948279;28;20277;-63
2023/07/01 01:52:21;;;;;;;4.73;2.43;;;;;;;15.10;89.25;149876.31;4954140;28;20229;-63
2023/07/01 01:54:51;;;;;;;4.30;2.50;;;;;;;15.14;89.73;149886.31;4952105;28;20232;-63
2023/07/01 01:57:18;;;;;;;2.87;2.20;;;;;;;15.23;88.46;149906.28;4956740;28;20289;-63
2023/07/01 01:59:45;;;;;;;2.63;2.10;;;;;;;15.23;88.59;149906.28;4949781;28;20225;-63
2023/07/01 02:02:13;;;;;;;3.73;2.53;;;;;;;15.33;86.28;149931.28;4955102;28;20230;-64
2023/07/01 02:04:40;;;;;;;2.77;2.10;;;;;;;15.32;85.26;149930.03;4953445;28;20310;-63
2023/07/01 02:07:07;;;;;;;5.83;2.10;;;;;;;15.38;84.55;149943.75;4955078;28;20242;-64
2023/07/01 02:09:34;;;;;;;5.50;2.10;;;;;;;15.37;85.66;149941.28;4949797;28;20219;-63
2023/07/01 02:12:00;;;;;;;4.60;2.30;;;;;;;15.39;85.69;149946.25;4954859;28;20243;-63
2023/07/01 02:14:27;;;;;;;5.97;2.20;;;;;;;15.61;84.64;149998.75;4954509;28;20278;-63
2023/07/01 02:16:54;;;;;;;4.93;2.60;;;;;;;15.54;83.44;149981.25;4950837;28;20223;-63
2023/07/01 02:19:22;;;;;;;4.77;2.53;;;;;;;15.48;82.87;149968.75;4954472;28;20223;-63
2023/07/01 02:21:48;;;;;;;4.10;2.00;;;;;;;15.46;82.74;149963.75;4951873;28;20226;-63
2023/07/01 02:24:15;;;;;;;4.20;2.37;;;;;;;15.44;82.91;149957.47;4954938;28;20230;-63
2023/07/01 02:26:42;;;;;;;4.77;2.40;;;;;;;15.39;84.71;149945.00;4950651;28;20258;-63
2023/07/01 02:29:08;;;;;;;3.33;2.40;;;;;;;15.31;84.38;149927.53;4956532;28;20232;-63
2023/07/01 02:31:35;;;;;;;5.20;2.20;;;;;;;15.22;84.61;149905.06;4953597;28;20321;-63
2023/07/01 02:34:02;;;;;;;5.87;2.23;;;;;;;15.14;83.77;149886.31;4967821;28;20241;-63
2023/07/01 02:36:31;;;;;;;5.70;2.47;;;;;;;15.14;85.17;149885.06;4955631;28;20227;-63
2023/07/01 02:38:57;;;;;;;5.37;2.50;;;;;;;15.02;84.63;149856.31;4952312;28;20236;-63
2023/07/01 02:41:24;;;;;;;4.43;2.20;;;;;;;14.89;85.93;149825.13;4957321;28;20231;-63
2023/07/01 02:43:50;;;;;;;3.80;1.90;;;;;;;14.77;87.18;149796.41;4952456;28;20241;-63
2023/07/01 02:46:23;;;;;;;2.37;2.10;;;;;;;14.75;87.71;149791.41;4955816;28;20723;-62
2023/07/01 02:48:50;;;;;;;3.37;2.30;;;;;;;14.74;83.91;149790.16;4956993;28;20844;-62
2023/07/01 02:51:20;;;;;;;3.27;1.97;;;;;;;14.93;80.08;149835.09;4956188;28;20240;-62
2023/07/01 02:53:48;;;;;;;7.00;2.43;;;;;;;15.04;81.03;149861.31;4954683;28;20226;-63
2023/07/01 02:56:15;;;;;;;2.47;2.27;;;;;;;15.13;81.02;149883.81;4960126;28;20874;-62
2023/07/01 02:58:41;;;;;;;3.60;2.10;;;;;;;15.10;81.18;149876.31;4955746;28;20237;-62
2023/07/01 03:01:08;;;;;;;2.60;1.83;;;;;;;15.14;80.77;149885.06;4955809;28;20249;-62
2023/07/01 03:03:35;;;;;;;6.63;2.20;;;;;;;15.02;83.31;149857.59;4954739;28;20316;-62
2023/07/01 03:06:02;;;;;;;6.30;2.23;;;;;;;15.01;82.25;149853.81;4954439;28;20241;-62
2023/07/01 03:08:28;;;;;;;3.40;2.03;;;;;;;14.98;82.76;149846.31;4957912;28;20711;-62
2023/07/01 03:10:56;;;;;;;2.77;1.93;;;;;;;14.96;81.70;149842.59;4953953;28;20224;-62
2023/07/01 03:13:23;;;;;;;2.53;2.30;;;;;;;14.91;81.57;149830.13;4957686;28;20302;-62
2023/07/01 03:15:50;;;;;;;6.87;2.20;;;;;;;14.90;84.51;149828.84;4953778;28;20238;-62
2023/07/01 03:18:17;;;;;;;4.27;1.80;;;;;;;14.79;86.24;149800.13;4955573;28;20243;-62
2023/07/01 03:20:43;;;;;;;5.60;2.50;;;;;;;14.72;86.13;149783.94;4955031;28;20746;-62
2023/07/01 03:23:10;;;;;;;7.83;2.63;;;;;;;14.74;84.40;149790.16;4957433;28;20233;-62
2023/07/01 03:25:38;;;;;;;5.33;2.13;;;;;;;14.66;85.92;149768.91;4954692;28;20229;-62
2023/07/01 03:28:06;;;;;;;4.67;2.30;;;;;;;14.84;85.72;149813.84;4955345;28;20319;-63
2023/07/01 03:33:12;;;;;;;6.00;2.23;;;;;;;14.66;85.46;149768.91;4931126;28;20274;-63
2023/07/01 03:35:38;;;;;;;3.60;2.20;;;;;;;14.52;88.71;149735.16;4935716;28;20364;-63
2023/07/01 03:38:05;;;;;;;2.20;1.80;;;;;;;14.45;89.20;149718.94;4935968;28;20221;-63
2023/07/01 03:40:32;;;;;;;5.20;2.60;;;;;;;14.49;87.24;149728.94;4940315;28;20248;-63
2023/07/01 03:42:58;;;;;;;4.87;2.33;;;;;;;14.58;85.71;149750.13;4943514;28;20249;-63
2023/07/01 03:45:26;;;;;;;3.33;2.40;;;;;;;14.67;86.22;149771.38;4939958;28;20241;-63
2023/07/01 03:47:53;;;;;;;4.07;2.30;;;;;;;14.82;86.51;149807.63;4934435;28;20234;-63
2023/07/01 03:50:20;;;;;;;3.63;2.67;;;;;;;14.70;86.66;149778.94;4937163;28;20234;-63
2023/07/01 03:52:46;;;;;;;4.80;2.20;;;;;;;14.67;85.89;149772.63;4937044;28;20273;-63
2023/07/01 03:55:14;;;;;;;7.87;2.50;;;;;;;14.60;86.67;149756.41;4937247;28;20316;-63
2023/07/01 03:57:40;;;;;;;5.17;2.67;;;;;;;14.55;87.86;149743.91;4936301;28;20700;-63
2023/07/01 04:00:08;;;;;;;3.70;2.20;;;;;;;14.52;88.15;149735.16;4938732;28;20234;-63
2023/07/01 04:02:40;;;;;;;2.97;2.53;;;;;;;14.46;87.78;149722.66;4935315;28;20237;-63
2023/07/01 04:05:10;;;;;;;4.03;2.17;;;;;;;14.45;88.81;149720.16;4937311;28;20237;-63
2023/07/01 04:07:37;;;;;;;2.87;2.20;;;;;;;14.46;89.88;149722.66;4939375;28;20237;-63
2023/07/01 04:10:05;;;;;;;7.10;2.37;;;;;;;14.44;89.71;149716.44;4938272;28;20238;-63
2023/07/01 04:12:32;;;;;;;3.93;2.20;;;;;;;14.52;88.13;149736.41;4934796;29;20237;-62
2023/07/01 04:14:59;;;;;;;6.23;2.50;;;;;;;14.54;87.98;149741.41;4935575;28;20328;-62
2023/07/01 04:17:26;;;;;;;3.30;2.20;;;;;;;14.66;85.94;149768.91;4938458;28;20229;-62
2023/07/01 04:19:54;;;;;;;4.00;2.40;;;;;;;14.77;85.15;149796.41;4933136;28;20252;-63
2023/07/01 04:22:21;;;;;;;5.33;2.40;;;;;;;14.89;84.71;149825.13;4935713;28;20238;-63
2023/07/01 04:24:47;;;;;;;3.90;2.60;;;;;;;15.16;81.27;149891.28;4935670;28;20701;-63
2023/07/01 04:27:14;;;;;;;3.90;2.10;;;;;;;15.29;79.46;149921.28;4937764;28;20242;-63
2023/07/01 04:29:40;;;;;;;3.63;2.40;;;;;;;15.45;79.46;149959.97;4934724;28;20457;-63
2023/07/01 04:32:08;;;;;;;5.60;2.20;;;;;;;15.49;78.47;149971.25;4936636;28;20314;-63
2023/07/01 04:34:34;;;;;;;5.10;2.63;;;;;;;15.56;77.23;149987.47;4941915;28;20732;-63
2023/07/01 04:37:02;;;;;;;5.03;2.30;;;;;;;15.71;75.43;150023.72;4935739;28;20285;-63
2023/07/01 04:39:29;;;;;;;5.63;2.30;;;;;;;15.84;75.96;150054.94;4937698;28;20237;-63
2023/07/01 04:41:56;;;;;;;5.87;2.30;;;;;;;15.90;74.31;150070.00;4934488;28;20289;-63
2023/07/01 04:44:23;;;;;;;4.27;2.10;;;;;;;15.98;73.79;150088.72;4934910;28;20509;-63
2023/07/01 04:46:50;;;;;;;4.07;2.30;;;;;;;16.01;73.42;150095.00;4933278;28;20224;-63
2023/07/01 04:49:17;;;;;;;4.73;2.40;;;;;;;16.05;73.64;150105.00;4938451;28;20263;-63
2023/07/01 04:51:44;;;;;;;5.80;2.47;;;;;;;16.08;73.89;150113.72;4934115;28;20297;-63
2023/07/01 04:54:11;;;;;;;4.50;2.60;;;;;;;16.13;73.77;150123.72;4935717;28;20234;-63
2023/07/01 04:56:38;;;;;;;6.50;2.80;;;;;;;16.13;72.37;150125.00;4930825;28;20232;-63
2023/07/01 04:59:05;;;;;;;4.80;2.33;;;;;;;16.16;72.65;150131.22;4937403;28;20246;-63
2023/07/01 05:01:32;;;;;;;5.47;1.90;;;;;;;16.20;72.55;150142.50;4935485;28;20231;-63
2023/07/01 05:03:59;;;;;;;8.07;2.57;;;;;;;16.26;71.56;150155.00;4931005;28;20247;-63
2023/07/01 05:06:25;;;;;;;3.30;2.27;;;;;;;16.32;71.15;150170.00;4933615;28;20625;-63
2023/07/01 05:08:53;;;;;;;6.10;2.20;;;;;;;16.37;71.22;150182.50;4933217;28;20365;-63
2023/07/01 05:11:25;;;;;;;6.13;2.53;;;;;;;16.41;71.21;150191.22;4935466;28;20266;-63
2023/07/01 05:13:52;;;;;;;7.97;2.50;;;;;;;16.49;71.94;150212.44;4930055;28;20246;-63
2023/07/01 05:16:23;;;;;;;3.20;2.10;;;;;;;16.50;72.23;150214.94;4935754;28;20683;-63
2023/07/01 05:18:50;;;;;;;6.73;2.20;;;;;;;16.50;73.29;150213.72;4934156;28;20730;-63
2023/07/01 05:21:49;;;;;;;2.97;1.90;;;;;;;16.55;72.05;150224.94;4933502;28;20237;-63
2023/07/01 05:24:16;;;;;;;4.43;2.10;;;;;;;16.60;70.67;150237.44;4934810;28;20233;-63
2023/07/01 05:26:46;;;;;;;6.33;2.37;;;;;;;16.68;70.75;150258.72;4932147;28;20241;-63
2023/07/01 05:29:13;;;;;;;5.10;2.00;;;;;;;16.75;71.10;150273.75;4934730;28;20227;-63
2023/07/01 05:31:40;;;;;;;5.30;2.23;;;;;;;16.80;70.07;150286.25;4933226;28;20240;-63
2023/07/01 05:34:07;;;;;;;4.50;2.00;;;;;;;16.90;67.67;150309.97;4934787;28;20294;-63
2023/07/01 05:36:33;;;;;;;5.33;2.50;;;;;;;16.93;67.68;150318.75;4935520;28;20584;-63
2023/07/01 05:39:00;;;;;;;6.07;2.70;;;;;;;17.00;69.48;150335.03;4932429;28;20244;-63
2023/07/01 05:41:26;;;;;;;5.43;2.27;;;;;;;17.00;69.05;150333.75;4934917;28;20700;-63
2023/07/01 05:43:55;;;;;;;7.03;2.30;;;;;;;17.14;67.84;150367.56;4932454;28;20222;-63
2023/07/01 05:46:23;;;;;;;4.47;2.20;;;;;;;17.29;65.56;150403.78;4934391;28;20230;-63
2023/07/01 05:48:50;;;;;;;5.50;2.13;;;;;;;17.49;66.27;150453.84;4933875;28;20256;-63
2023/07/01 05:51:16;;;;;;;3.53;1.80;;;;;;;17.62;67.16;150483.84;4933588;28;20650;-63
2023/07/01 05:53:45;;;;;;;3.00;2.17;;;;;;;17.70;66.21;150503.88;4933238;28;20249;-63
2023/07/01 05:56:12;;;;;;;3.13;1.97;;;;;;;17.76;64.86;150517.63;4936820;28;20413;-63
2023/07/01 05:58:39;;;;;;;5.83;2.00;;;;;;;17.88;64.09;150546.41;4935736;28;20236;-63
2023/07/01 06:01:07;;;;;;;3.67;2.10;;;;;;;18.00;60.14;150576.50;4937565;28;20238;-63
2023/07/01 06:03:33;;;;;;;5.53;1.83;;;;;;;17.90;61.50;150551.41;4938961;28;20248;-63
2023/07/01 06:06:00;;;;;;;6.53;2.20;;;;;;;18.01;62.60;150579.00;4933704;28;20232;-63
2023/07/01 06:08:26;;;;;;;7.10;2.40;;;;;;;18.07;62.94;150593.97;4935253;28;20260;-63
2023/07/01 06:10:53;;;;;;;6.07;2.17;;;;;;;18.15;61.52;150612.75;4932748;28;20310;-63
2023/07/01 06:13:20;;;;;;;2.73;2.27;;;;;;;18.20;63.48;150624.00;4937785;28;20215;-63
2023/07/01 06:15:47;;;;;;;9.00;2.17;;;;;;;18.21;62.83;150627.78;4934730;28;20222;-63
2023/07/01 06:18:15;;;;;;;5.63;2.43;;;;;;;18.36;62.64;150664.03;4934973;28;20239;-63
2023/07/01 06:20:42;;;;;;;3.40;1.90;;;;;;;18.50;62.24;150697.88;4934188;28;20284;-63
2023/07/01 06:23:09;;;;;;;7.53;1.90;;;;;;;18.57;62.26;150714.13;4937718;28;20232;-63
2023/07/01 06:25:36;;;;;;;3.03;2.30;;;;;;;18.78;60.63;150764.19;4937453;28;20721;-63
2023/07/01 06:28:02;;;;;;;4.93;2.00;;;;;;;18.77;60.78;150761.69;4936020;28;20255;-63
2023/07/01 06:30:29;;;;;;;9.43;2.40;;;;;;;18.72;60.54;150751.66;4936853;28;20711;-63
2023/07/01 06:32:55;;;;;;;3.27;2.17;;;;;;;18.96;61.12;150809.31;4936839;28;20778;-63
2023/07/01 06:35:23;;;;;;;3.30;2.10;;;;;;;19.13;60.65;150849.31;4937863;28;20253;-63
2023/07/01 06:37:50;;;;;;;4.30;2.10;;;;;;;19.26;59.77;150880.66;4937001;28;20683;-63
2023/07/01 06:40:17;;;;;;;5.60;2.10;;;;;;;19.36;58.82;150904.41;4943077;28;20275;-63
2023/07/01 06:42:43;;;;;;;5.93;2.20;;;;;;;19.49;59.73;150935.75;4930998;28;20284;-64
2023/07/01 06:45:11;;;;;;;5.80;2.20;;;;;;;19.37;59.51;150908.19;4938652;28;20244;-63
2023/07/01 06:47:37;;;;;;;4.00;2.40;;;;;;;19.62;58.89;150969.53;4937450;28;20253;-63
2023/07/01 06:50:04;;;;;;;5.47;2.33;;;;;;;19.52;58.62;150944.50;4933011;28;20247;-63
2023/07/01 06:52:32;;;;;;;4.23;2.10;;;;;;;19.55;57.94;150952.00;4938593;28;20240;-63
2023/07/01 06:54:59;;;;;;;3.73;2.03;;;;;;;19.58;57.42;150959.53;4936979;28;20240;-63
2023/07/01 06:57:25;;;;;;;7.73;2.30;;;;;;;19.74;58.08;150997.09;4938895;28;20573;-63
2023/07/01 06:59:52;;;;;;;3.90;2.33;;;;;;;19.74;58.16;150998.31;4936612;28;20250;-63
2023/07/01 07:02:19;;;;;;;4.03;2.50;;;;;;;19.73;58.91;150994.59;4937301;28;20918;-63
2023/07/01 07:04:45;;;;;;;6.77;2.40;;;;;;;19.88;58.50;151032.16;4937003;28;20240;-63
2023/07/01 07:07:12;;;;;;;3.23;2.23;;;;;;;19.74;60.56;150998.31;4939176;28;20291;-63
2023/07/01 07:09:40;;;;;;;6.80;2.37;;;;;;;19.84;60.72;151022.16;4937488;28;20232;-63
2023/07/01 07:12:08;;;;;;;5.93;2.40;;;;;;;20.00;60.97;151059.78;4942081;28;20240;-63
2023/07/01 07:14:34;;;;;;;4.53;2.60;;;;;;;19.97;61.25;151052.25;4940244;28;20574;-63
2023/07/01 07:17:01;;;;;;;6.67;2.37;;;;;;;20.04;61.13;151069.81;4932969;28;20623;-63
2023/07/01 07:19:27;;;;;;;6.73;2.33;;;;;;;20.09;60.28;151082.34;4938892;28;20234;-63
2023/07/01 07:21:54;;;;;;;3.40;2.30;;;;;;;20.14;61.47;151093.59;4935302;28;20804;-63
2023/07/01 07:24:21;;;;;;;3.67;2.47;;;;;;;20.04;60.12;151069.81;4936104;28;20629;-63
2023/07/01 07:26:56;;;;;;;4.73;2.50;;;;;;;19.96;62.01;151049.75;4937643;28;20269;-63
2023/07/01 07:29:23;;;;;;;5.40;2.37;;;;;;;20.24;60.91;151117.38;4936964;28;20237;-63
2023/07/01 07:31:50;;;;;;;7.17;2.60;;;;;;;20.45;61.88;151170.00;4932581;28;20287;-63
2023/07/01 07:34:16;;;;;;;5.10;2.87;;;;;;;20.74;59.31;151238.88;4941267;28;20228;-63
2023/07/01 07:36:43;;;;;;;6.83;2.80;;;;;;;20.47;59.31;151175.00;4932795;28;20233;-63
2023/07/01 07:39:12;;;;;;;5.50;2.80;;;;;;;20.33;61.96;151139.91;4938433;28;20719;-63
2023/07/01 07:41:39;;;;;;;5.80;2.50;;;;;;;20.17;61.52;151101.09;4936945;28;20817;-63
2023/07/01 07:44:07;;;;;;;5.53;2.40;;;;;;;20.26;60.89;151123.66;4940726;28;20241;-63
2023/07/01 07:46:35;;;;;;;5.13;2.53;;;;;;;20.24;61.39;151117.38;4936917;28;20296;-63
2023/07/01 07:49:01;;;;;;;4.57;2.90;;;;;;;20.07;61.84;151077.31;4933612;28;20248;-63
2023/07/01 07:51:28;;;;;;;4.93;2.90;;;;;;;20.28;63.51;151128.66;4935329;28;20272;-63
2023/07/01 07:53:55;;;;;;;6.80;2.40;;;;;;;20.14;61.77;151093.59;4935419;28;20318;-63
2023/07/01 07:56:23;;;;;;;4.47;2.50;;;;;;;20.32;62.56;151137.41;4939751;28;20279;-63
2023/07/01 07:58:50;;;;;;;4.27;2.37;;;;;;;20.04;58.72;151069.81;4937642;28;20225;-63
2023/07/01 08:01:22;;;;;;;4.23;2.00;;;;;;;20.00;60.13;151061.00;4937399;28;20250;-63
2023/07/01 08:03:49;;;;;;;3.67;2.70;;;;;;;20.08;59.96;151078.56;4934335;28;20248;-63
2023/07/01 08:06:15;;;;;;;4.73;2.23;;;;;;;20.09;58.84;151082.34;4935849;28;20267;-64
2023/07/01 08:08:42;;;;;;;4.93;2.33;;;;;;;20.13;59.41;151091.06;4930131;28;20246;-64
2023/07/01 08:11:08;;;;;;;6.63;2.50;;;;;;;20.20;59.23;151108.63;4933163;28;20241;-64
2023/07/01 08:13:35;;;;;;;3.60;2.10;;;;;;;20.44;58.35;151167.47;4935961;28;20314;-64
2023/07/01 08:16:03;;;;;;;4.53;1.87;;;;;;;20.43;57.17;151164.97;4936693;28;20237;-63
2023/07/01 08:18:31;;;;;;;6.50;2.53;;;;;;;20.55;57.92;151192.53;4935389;28;20252;-63
2023/07/01 08:20:58;;;;;;;6.53;2.70;;;;;;;20.49;56.56;151178.78;4936338;28;20810;-63
2023/07/01 08:23:24;;;;;;;6.23;2.10;;;;;;;20.27;58.12;151124.88;4935168;28;20799;-63
2023/07/01 08:25:51;;;;;;;4.97;2.17;;;;;;;20.23;59.13;151114.84;4933152;28;20650;-63
2023/07/01 08:28:17;;;;;;;6.00;2.60;;;;;;;20.21;57.91;151111.13;4932042;29;20239;-63
2023/07/01 08:30:44;;;;;;;5.80;2.53;;;;;;;20.27;58.77;151126.16;4931539;28;20585;-63
2023/07/01 08:33:11;;;;;;;5.70;2.20;;;;;;;20.45;58.57;151168.75;4939316;28;21176;-63
2023/07/01 08:35:39;;;;;;;4.27;1.83;;;;;;;20.60;58.03;151205.06;4934982;28;20220;-63
2023/07/01 08:38:05;;;;;;;3.00;1.90;;;;;;;20.34;56.37;151142.41;4934578;28;20291;-63
2023/07/01 08:40:32;;;;;;;2.03;1.83;;;;;;;20.42;56.08;151161.25;4940937;28;20327;-63
2023/07/01 08:43:02;;;;;;;5.20;2.03;;;;;;;20.50;57.24;151182.53;4935083;28;20655;-63
2023/07/01 08:45:30;;;;;;;3.37;1.93;;;;;;;20.47;55.79;151175.00;4935149;28;20305;-63
2023/07/01 08:47:59;;;;;;;5.33;2.10;;;;;;;20.72;54.16;151235.16;4932760;28;20233;-63
2023/07/01 08:50:29;;;;;;;5.33;1.97;;;;;;;20.70;55.12;151230.13;4935390;28;20245;-63
2023/07/01 08:53:03;;;;;;;6.77;1.83;;;;;;;20.85;55.42;151265.28;4929596;28;20252;-63
2023/07/01 08:55:31;;;;;;;5.67;1.87;;;;;;;20.91;53.18;151281.56;4936999;28;20248;-63
2023/07/01 08:57:58;;;;;;;3.27;1.60;;;;;;;21.01;53.43;151305.38;4932931;28;22309;-63
2023/07/01 09:00:25;;;;;;;5.07;1.80;;;;;;;21.13;52.72;151332.97;4935725;28;20229;-63
2023/07/01 09:02:53;;;;;;;6.57;1.80;;;;;;;21.38;53.07;151394.38;4932608;28;20269;-63
2023/07/01 09:05:19;;;;;;;4.03;2.00;;;;;;;21.43;50.37;151405.63;4935946;28;20300;-63
2023/07/01 09:07:46;;;;;;;3.00;1.87;;;;;;;21.38;52.06;151394.38;4935132;28;20257;-63
2023/07/01 09:10:14;;;;;;;8.77;1.70;;;;;;;21.73;49.61;151478.41;4935814;28;20286;-63
2023/07/01 09:12:41;;;;;;;6.03;1.60;;;;;;;22.03;50.12;151552.38;4933101;28;20702;-63
2023/07/01 09:15:08;;;;;;;5.57;1.77;;;;;;;22.23;47.25;151601.31;4935298;28;20236;-63
2023/07/01 09:17:36;;;;;;;3.13;1.77;;;;;;;22.62;44.60;151695.41;4934987;28;20732;-63
2023/07/01 09:20:06;;;;;;;5.57;1.70;;;;;;;22.38;43.95;151636.38;4934913;28;20245;-63
2023/07/01 09:22:33;;;;;;;6.07;2.03;;;;;;;22.52;45.97;151670.31;4937281;28;20239;-63
2023/07/01 09:25:00;;;;;;;5.87;2.30;;;;;;;22.36;45.87;151631.34;4928718;28;20308;-63
2023/07/01 09:27:40;;;;;;;4.60;1.90;;;;;;;23.06;44.97;151802.03;4937447;28;20235;-63
2023/07/01 09:30:24;;;;;;;4.70;2.10;;;;;;;23.19;44.73;151833.38;4935754;28;20229;-64
2023/07/01 09:32:50;;;;;;;4.47;1.80;;;;;;;23.26;45.41;151851.00;4934480;28;20249;-64
2023/07/01 09:35:17;;;;;;;3.53;2.10;;;;;;;23.46;43.46;151897.41;4933710;28;20231;-64
2023/07/01 09:37:44;;;;;;;6.30;2.37;;;;;;;22.91;43.92;151764.38;4932982;28;20234;-64
2023/07/01 09:40:20;;;;;;;4.37;2.10;;;;;;;22.92;45.54;151766.91;4935387;28;20639;-64
2023/07/01 09:42:55;;;;;;;3.93;1.80;;;;;;;22.78;44.71;151734.28;4934200;28;20237;-64
2023/07/01 09:45:22;;;;;;;5.43;1.80;;;;;;;23.27;46.17;151853.50;4936861;28;20224;-64
2023/07/01 09:47:52;;;;;;;5.00;2.20;;;;;;;23.54;42.94;151917.50;4935517;28;20692;-64
2023/07/01 09:50:23;;;;;;;8.20;1.90;;;;;;;23.82;44.55;151985.28;4937430;28;20264;-64
2023/07/01 09:52:52;;;;;;;3.67;1.83;;;;;;;24.37;42.94;152118.41;4932149;28;20240;-64
2023/07/01 09:55:19;;;;;;;4.50;2.27;;;;;;;24.45;42.43;152139.72;4939069;28;20332;-64
2023/07/01 09:57:46;;;;;;;6.67;1.87;;;;;;;24.22;43.48;152083.25;4937023;28;20251;-64
2023/07/01 10:00:16;;;;;;;4.87;2.23;;;;;;;24.34;42.90;152110.88;4937472;28;20233;-64
2023/07/01 10:02:44;;;;;;;7.73;1.83;;;;;;;24.06;44.92;152044.31;4934207;28;20303;-64
2023/07/01 10:05:12;;;;;;;3.53;1.93;;;;;;;24.08;43.94;152049.31;4937303;28;20251;-64
2023/07/01 10:07:39;;;;;;;3.10;1.73;;;;;;;24.42;42.31;152132.19;4936303;28;20663;-64
2023/07/01 10:10:11;;;;;;;6.73;1.63;;;;;;;23.78;42.00;151976.50;4939615;28;20237;-64
2023/07/01 10:12:40;;;;;;;4.43;1.83;;;;;;;24.13;39.32;152061.88;4937815;28;20245;-64
2023/07/01 10:15:09;;;;;;;3.47;2.00;;;;;;;23.45;41.15;151896.19;4937090;28;20246;-64
2023/07/01 10:17:47;;;;;;;5.80;2.17;;;;;;;23.11;43.14;151814.56;4939614;28;20231;-64
2023/07/01 10:20:30;;;;;;;3.53;1.60;;;;;;;23.08;42.06;151807.06;4933937;28;20240;-64
2023/07/01 10:22:57;;;;;;;6.37;1.90;;;;;;;22.73;43.57;151720.50;4937151;28;20282;-64
2023/07/01 10:25:31;;;;;;;5.67;2.10;;;;;;;23.09;43.07;151808.28;4934271;28;20243;-64
2023/07/01 10:28:05;;;;;;;4.60;1.93;;;;;;;23.57;42.09;151925.03;4937094;28;21399;-64
2023/07/01 10:31:12;;;;;;;3.83;1.73;;;;;;;23.82;41.79;151985.28;4940909;28;20238;-64
2023/07/01 10:33:51;;;;;;;8.00;1.90;;;;;;;24.26;43.42;152093.28;4932395;28;20717;-64
2023/07/01 10:36:24;;;;;;;3.53;2.00;;;;;;;24.62;40.87;152179.91;4936922;28;20228;-64
2023/07/01 10:38:50;;;;;;;3.27;1.70;;;;;;;24.69;41.69;152196.22;4944316;28;20236;-64
2023/07/01 10:41:52;;;;;;;3.77;1.70;;;;;;;24.80;41.73;152223.88;4939742;28;20248;-64
2023/07/01 10:44:25;;;;;;;5.90;1.90;;;;;;;23.97;40.19;152021.66;4933864;28;20325;-64
2023/07/01 10:47:16;;;;;;;6.43;1.90;;;;;;;24.44;40.56;152137.22;4934298;28;20333;-64
2023/07/01 10:50:07;;;;;;;4.10;2.00;;;;;;;23.69;42.03;151953.91;4930501;28;20294;-63
2023/07/01 10:53:01;;;;;;;3.53;1.80;;;;;;;23.79;41.44;151979.03;4937308;28;20238;-63
2023/07/01 10:55:44;;;;;;;3.53;1.90;;;;;;;23.96;42.21;152019.13;4934455;28;20339;-63
2023/07/01 10:58:18;;;;;;;4.10;1.97;;;;;;;23.51;42.75;151911.25;4934274;28;20590;-64
2023/07/01 11:00:47;;;;;;;5.70;2.03;;;;;;;23.52;42.75;151912.47;4935825;28;20256;-63
2023/07/01 11:03:47;;;;;;;4.77;1.90;;;;;;;24.66;41.28;152189.97;4937555;29;20240;-63
2023/07/01 11:06:15;;;;;;;5.20;2.03;;;;;;;23.84;42.12;151991.56;4930904;28;20257;-63
2023/07/01 11:08:45;;;;;;;4.00;1.90;;;;;;;25.11;42.77;152299.25;4934895;28;20701;-63
2023/07/01 11:11:12;;;;;;;3.50;1.93;;;;;;;24.96;40.14;152261.56;4939597;28;20292;-63
2023/07/01 11:13:39;;;;;;;3.20;2.03;;;;;;;24.72;39.78;152203.75;4932754;28;20232;-63
2023/07/01 11:16:08;;;;;;;4.63;2.13;;;;;;;25.00;40.27;152271.63;4944733;28;20234;-63
2023/07/01 11:18:41;;;;;;;4.47;1.90;;;;;;;24.88;40.01;152244.00;4935300;28;20272;-63
2023/07/01 11:21:10;;;;;;;4.77;2.00;;;;;;;25.08;40.83;152290.44;4934635;28;20246;-63
2023/07/01 11:23:42;;;;;;;3.90;1.93;;;;;;;25.53;40.76;152401.03;4937513;28;20243;-63
2023/07/01 11:26:57;;;;;;;5.97;2.03;;;;;;;25.66;41.75;152431.19;4936537;28;20637;-64
2023/07/01 11:29:24;;;;;;;4.27;2.03;;;;;;;25.01;40.66;152274.13;4926276;28;20253;-64
2023/07/01 11:31:58;;;;;;;4.47;2.10;;;;;;;25.45;41.95;152380.94;4934272;28;20230;-64
2023/07/01 11:34:24;;;;;;;4.37;2.10;;;;;;;24.99;42.12;152270.34;4937804;28;20234;-64